METAR Data
IDs: Format: Raw Decoded Include TAF

Data at: 1616 UTC 03 Dec 2021

KMFR 031553Z 03005KT 1/2SM R14/5500VP6000FT FG OVC001 05/05 A3022 RMK AO2 SLP238 T00500050
KMFR 031516Z 01003KT 1/2SM R14/6000VP6000FT FG OVC001 05/05 A3022 RMK AO2 T00500050
KMFR 031503Z 02003KT 1SM R14/P6000FT BR OVC003 05/05 A3022 RMK AO2 T00500050
KMFR 031500Z 02003KT 1SM R14/P6000FT BR OVC003 05/05 A3022 RMK AO2 T00500050
KMFR 031453Z COR 02003KT 1 1/2SM BR OVC003 05/05 A3022 RMK AO2 SLP240 T00500050 56000
KMFR 031416Z 08003KT 1 1/2SM BR OVC005 05/05 A3022 RMK AO2 CIG 002V008 T00500050
KMFR 031353Z 06005KT 2 1/2SM BR OVC003 05/05 A3022 RMK AO2 SLP239 T00500050
KMFR 031345Z AUTO 07005KT 2SM BR OVC002 05/05 A3022 RMK AO2 T00500050
KMFR 031253Z AUTO 03005KT 1SM R14/P6000FT BR OVC002 05/05 A3022 RMK AO2 SLP237 T00500050
KMFR 031211Z AUTO 02003KT 1 1/2SM BR OVC002 06/06 A3022 RMK AO2 T00560056
KMFR 031204Z AUTO 00000KT 2SM BR OVC002 06/06 A3022 RMK AO2 T00560056
KMFR 031153Z AUTO 00000KT 4SM BR OVC003 06/05 A3022 RMK AO2 SLP239 T00560050 10056 20050 58003
KMFR 031102Z AUTO 00000KT 3SM BR OVC003 06/06 A3023 RMK AO2 T00560056
KMFR 031053Z AUTO 00000KT 1 1/2SM BR OVC003 06/06 A3023 RMK AO2 SLP241 T00560056
KMFR 031048Z AUTO 00000KT 1 1/4SM BR OVC003 06/06 A3023 RMK AO2
KMFR 031011Z AUTO 00000KT 1/2SM R14/2600V4500FT FG VV002 06/06 A3023 RMK AO2 T00560056
KMFR 030953Z AUTO 01003KT 1/4SM R14/2600V3000FT FG VV002 06/06 A3023 RMK AO2 SLP242 T00560056
KMFR 030838Z AUTO 36003KT 1/2SM R14/2800V3000FT FG VV002 06/06 A3023 RMK AO2 T00560056
KMFR 030827Z AUTO 36003KT 1 1/4SM R14/2600V4500FT BR OVC002 06/06 A3023 RMK AO2 T00560056
KMFR 030753Z AUTO 35004KT 1/2SM R14/4500VP6000FT FG VV002 06/06 A3024 RMK AO2 SLP245 T00560056 400720044
KMFR 030653Z AUTO VRB03KT 1/2SM R14/3500V5000FT FG VV002 06/06 A3024 RMK AO2 SLP248 T00560056
KMFR 030553Z AUTO 00000KT 1/2SM R14/4000V5500FT FG VV002 06/06 A3025 RMK AO2 SLP250 T00560056 10067 20056 51006
KMFR 030453Z AUTO 00000KT 1/2SM R14/3000V3500FT FG VV002 06/06 A3025 RMK AO2 SLP249 T00610061
KMFR 030400Z 00000KT 1/2SM R14/2400V3000FT FG VV002 06/06 A3024 RMK AO2 T00560056
KMFR 030353Z 19003KT 1/4SM R14/2200V2800FT FG VV002 06/06 A3024 RMK AO2 SLP247 T00610061
KMFR 030344Z 00000KT 1/4SM R14/1800V2400FT FG VV002 06/06 A3024 RMK AO2 T00610061
KMFR 030337Z 00000KT 1/2SM R14/1800V2600FT FG VV002 06/06 A3024 RMK AO2 T00610061
KMFR 030316Z 00000KT 1/4SM R14/2000V2800FT FG VV002 06/06 A3024 RMK AO2 T00610061
KMFR 030253Z 00000KT 1/4SM R14/1800V2000FT FG VV002 06/06 A3023 RMK AO2 SLP244 T00610061 51006
KMFR 030242Z 02003KT 1/4SM R14/1800V2200FT FG VV002 06/06 A3023 RMK AO2 T00610061
KMFR 030205Z 00000KT 1/4SM R14/2200V5000FT FG VV002 06/06 A3023 RMK AO2 T00610061
KMFR 030153Z 00000KT 1SM R14/3500V5500FT BR VV002 06/06 A3023 RMK AO2 SLP243 T00610061
KMFR 030053Z 00000KT 1 1/4SM R14/3500V5000FT BR OVC002 07/06 A3022 RMK AO2 SLP238 T00670061
KMFR 030016Z 04003KT 1 3/4SM R14/6000VP6000FT BR OVC002 07/06 A3022 RMK AO2 T00670061
KMFR 022353Z 00000KT 2 1/2SM BR OVC003 07/06 A3021 RMK AO2 SLP236 T00670061 10072 20050 56011
KMFR 022344Z 00000KT 2 1/2SM BR OVC003 07/06 A3021 RMK AO2 T00670061
KMFR 022253Z 00000KT 3SM BR OVC003 07/06 A3022 RMK AO2 SLP239 T00670061
KMFR 022153Z 11003KT 4SM BR OVC003 07/06 A3023 RMK AO2 SLP240 T00670061
KMFR 022053Z 00000KT 3SM BR OVC003 07/06 A3025 RMK AO2 SLP248 T00670056 58015
KMFR 021953Z 00000KT 2 1/2SM BR OVC003 06/06 A3026 RMK AO2 SLP253 T00610056
KMFR 021853Z 00000KT 1 1/2SM R14/4500VP6000FT BR OVC002 06/06 A3028 RMK AO2 SLP261 T00560056
KMFR 021753Z 00000KT 1 1/2SM BR OVC002 05/05 A3029 RMK AO2 SLP265 T00500050 10056 20044 51015
KMFR 021653Z VRB03KT 1SM R14/5000VP6000FT BR OVC002 05/05 A3028 RMK AO2 SLP260 T00500050
KMFR 021553Z 00000KT 1/2SM R14/4500V6000FT FG OVC002 05/05 A3027 RMK AO2 SLP256 T00500050
KMFR 021453Z 17003KT 2 1/2SM R14/5500VP6000FT BR OVC002 04/04 A3025 RMK AO2 SLP249 T00440044 53003
KMFR 021353Z 00000KT 1SM R14/5000VP6000FT BR OVC002 05/05 A3024 RMK AO2 SLP245 T00500050
KMFR 021321Z AUTO 20003KT 3/4SM R14/5000V6000FT BR VV003 05/05 A3024 RMK AO2 T00500050
KMFR 021253Z AUTO 00000KT 1SM R14/4500V5000FT BR VV003 05/05 A3024 RMK AO2 SLP246 T00500050
KMFR 021153Z AUTO 00000KT 3/4SM R14/4500V5500FT BR VV002 05/05 A3024 RMK AO2 SLP245 T00500050 10061 20050 56002
KMFR 021053Z AUTO 03004KT 3/4SM R14/4500V6000FT BR VV002 05/05 A3025 RMK AO2 SLP247 T00500050
KMFR 020953Z AUTO 04003KT 1/2SM R14/2800V4000FT FG VV002 06/06 A3024 RMK AO2 SLP244 T00560056
KMFR 020932Z AUTO 00000KT 1/4SM R14/2600FT FG VV002 06/06 A3024 RMK AO2 T00560056
KMFR 020853Z AUTO 33004KT 1/2SM R14/2600V2800FT FG VV002 06/06 A3024 RMK AO2 SLP247 T00560056 50002
KMFR 020753Z AUTO 21003KT 1/2SM R14/2400V2800FT FG VV002 06/06 A3025 RMK AO2 SLP247 T00560056 400720050
KMFR 020653Z AUTO 00000KT 1/2SM R14/3500V4000FT FG VV002 06/06 A3024 RMK AO2 SLP247 T00560056
KMFR 020553Z AUTO 00000KT 1/2SM R14/3500V4000FT FG VV002 06/06 A3024 RMK AO2 SLP245 T00560056 10072 20056 53010
KMFR 020453Z AUTO 00000KT 1/2SM R14/3500V4000FT FG VV002 06/06 A3022 RMK AO2 SLP240 T00560056